sensor_id;sensor_type;location;lat;lon;timestamp;P1;durP1;ratioP1;P2;durP2;ratioP2
72335;SDS011;65062;48.446;8.834;2022-12-07T00:00:55;4.53;;;3.15;;
72335;SDS011;65062;48.446;8.834;2022-12-07T00:04:04;3.67;;;2.38;;
72335;SDS011;65062;48.446;8.834;2022-12-07T00:10:06;4.07;;;2.63;;
72335;SDS011;65062;48.446;8.834;2022-12-07T00:13:06;4.22;;;2.67;;
72335;SDS011;65062;48.446;8.834;2022-12-07T00:16:16;3.65;;;2.58;;
72335;SDS011;65062;48.446;8.834;2022-12-07T00:19:18;3.45;;;2.58;;
72335;SDS011;65062;48.446;8.834;2022-12-07T00:22:19;3.55;;;2.58;;
72335;SDS011;65062;48.446;8.834;2022-12-07T00:25:19;3.03;;;2.50;;
72335;SDS011;65062;48.446;8.834;2022-12-07T00:28:20;5.07;;;3.00;;
72335;SDS011;65062;48.446;8.834;2022-12-07T00:31:21;3.75;;;2.97;;
72335;SDS011;65062;48.446;8.834;2022-12-07T00:34:23;4.35;;;3.00;;
72335;SDS011;65062;48.446;8.834;2022-12-07T00:37:23;4.45;;;3.20;;
72335;SDS011;65062;48.446;8.834;2022-12-07T00:40:24;4.47;;;2.97;;
72335;SDS011;65062;48.446;8.834;2022-12-07T00:43:24;5.07;;;2.60;;
72335;SDS011;65062;48.446;8.834;2022-12-07T00:46:25;3.75;;;2.47;;
72335;SDS011;65062;48.446;8.834;2022-12-07T00:49:25;5.30;;;2.75;;
72335;SDS011;65062;48.446;8.834;2022-12-07T00:52:26;4.50;;;3.03;;
72335;SDS011;65062;48.446;8.834;2022-12-07T00:55:26;4.30;;;2.97;;
72335;SDS011;65062;48.446;8.834;2022-12-07T00:58:26;5.30;;;2.95;;
72335;SDS011;65062;48.446;8.834;2022-12-07T01:01:28;4.88;;;2.65;;
72335;SDS011;65062;48.446;8.834;2022-12-07T01:04:32;3.72;;;2.72;;
72335;SDS011;65062;48.446;8.834;2022-12-07T01:07:33;5.57;;;2.97;;
72335;SDS011;65062;48.446;8.834;2022-12-07T01:10:34;5.70;;;3.33;;
72335;SDS011;65062;48.446;8.834;2022-12-07T01:13:35;4.75;;;2.88;;
72335;SDS011;65062;48.446;8.834;2022-12-07T01:16:35;5.75;;;3.20;;
72335;SDS011;65062;48.446;8.834;2022-12-07T01:19:38;5.13;;;3.28;;
72335;SDS011;65062;48.446;8.834;2022-12-07T01:22:39;5.03;;;3.40;;
72335;SDS011;65062;48.446;8.834;2022-12-07T01:28:41;4.22;;;2.78;;
72335;SDS011;65062;48.446;8.834;2022-12-07T01:31:41;5.18;;;2.78;;
72335;SDS011;65062;48.446;8.834;2022-12-07T01:34:42;4.07;;;2.63;;
72335;SDS011;65062;48.446;8.834;2022-12-07T01:37:42;4.53;;;2.78;;
72335;SDS011;65062;48.446;8.834;2022-12-07T01:40:42;4.85;;;2.80;;
72335;SDS011;65062;48.446;8.834;2022-12-07T01:47:11;4.45;;;3.03;;
72335;SDS011;65062;48.446;8.834;2022-12-07T01:50:12;4.90;;;3.38;;
72335;SDS011;65062;48.446;8.834;2022-12-07T01:53:13;5.63;;;3.00;;
72335;SDS011;65062;48.446;8.834;2022-12-07T01:56:15;5.50;;;3.60;;
72335;SDS011;65062;48.446;8.834;2022-12-07T01:59:19;4.15;;;3.10;;
72335;SDS011;65062;48.446;8.834;2022-12-07T02:02:26;4.70;;;2.92;;
72335;SDS011;65062;48.446;8.834;2022-12-07T02:05:32;5.78;;;3.08;;
72335;SDS011;65062;48.446;8.834;2022-12-07T02:08:34;6.28;;;3.25;;
72335;SDS011;65062;48.446;8.834;2022-12-07T02:11:35;5.28;;;3.35;;
72335;SDS011;65062;48.446;8.834;2022-12-07T02:14:35;5.95;;;3.40;;
72335;SDS011;65062;48.446;8.834;2022-12-07T02:31:04;4.43;;;2.90;;
72335;SDS011;65062;48.446;8.834;2022-12-07T02:34:12;6.00;;;3.55;;
72335;SDS011;65062;48.446;8.834;2022-12-07T02:47:07;7.05;;;3.83;;
72335;SDS011;65062;48.446;8.834;2022-12-07T02:50:11;7.20;;;4.05;;
72335;SDS011;65062;48.446;8.834;2022-12-07T02:53:34;7.05;;;4.03;;
72335;SDS011;65062;48.446;8.834;2022-12-07T02:56:43;6.65;;;3.25;;
72335;SDS011;65062;48.446;8.834;2022-12-07T03:06:20;7.68;;;3.65;;
72335;SDS011;65062;48.446;8.834;2022-12-07T03:12:44;6.32;;;3.60;;
72335;SDS011;65062;48.446;8.834;2022-12-07T03:15:58;8.70;;;4.00;;
72335;SDS011;65062;48.446;8.834;2022-12-07T03:19:00;5.30;;;3.47;;
72335;SDS011;65062;48.446;8.834;2022-12-07T03:22:12;6.97;;;3.80;;
72335;SDS011;65062;48.446;8.834;2022-12-07T03:25:14;8.27;;;3.85;;
72335;SDS011;65062;48.446;8.834;2022-12-07T03:28:17;6.93;;;3.72;;
72335;SDS011;65062;48.446;8.834;2022-12-07T03:31:22;7.28;;;3.80;;
72335;SDS011;65062;48.446;8.834;2022-12-07T03:34:34;6.60;;;4.28;;
72335;SDS011;65062;48.446;8.834;2022-12-07T03:38:08;8.43;;;4.45;;
72335;SDS011;65062;48.446;8.834;2022-12-07T03:41:25;7.30;;;4.30;;
72335;SDS011;65062;48.446;8.834;2022-12-07T03:44:28;6.45;;;3.92;;
72335;SDS011;65062;48.446;8.834;2022-12-07T03:51:01;8.95;;;4.38;;
72335;SDS011;65062;48.446;8.834;2022-12-07T03:57:10;6.43;;;3.80;;
72335;SDS011;65062;48.446;8.834;2022-12-07T04:00:12;6.35;;;3.78;;
72335;SDS011;65062;48.446;8.834;2022-12-07T04:03:13;6.55;;;3.80;;
72335;SDS011;65062;48.446;8.834;2022-12-07T04:06:13;6.10;;;3.63;;
72335;SDS011;65062;48.446;8.834;2022-12-07T04:09:14;6.30;;;3.45;;
72335;SDS011;65062;48.446;8.834;2022-12-07T04:12:15;6.38;;;4.13;;
72335;SDS011;65062;48.446;8.834;2022-12-07T04:15:15;7.07;;;3.75;;
72335;SDS011;65062;48.446;8.834;2022-12-07T04:18:15;6.65;;;3.88;;
72335;SDS011;65062;48.446;8.834;2022-12-07T04:21:16;8.27;;;4.03;;
72335;SDS011;65062;48.446;8.834;2022-12-07T04:24:16;7.70;;;4.97;;
72335;SDS011;65062;48.446;8.834;2022-12-07T04:27:17;10.57;;;6.10;;
72335;SDS011;65062;48.446;8.834;2022-12-07T04:30:17;74.97;;;18.80;;
72335;SDS011;65062;48.446;8.834;2022-12-07T04:33:18;39.33;;;13.13;;
72335;SDS011;65062;48.446;8.834;2022-12-07T04:36:18;14.77;;;5.97;;
72335;SDS011;65062;48.446;8.834;2022-12-07T04:39:25;9.10;;;4.32;;
72335;SDS011;65062;48.446;8.834;2022-12-07T04:42:31;8.05;;;4.30;;
72335;SDS011;65062;48.446;8.834;2022-12-07T04:45:31;9.00;;;4.10;;
72335;SDS011;65062;48.446;8.834;2022-12-07T04:48:31;7.15;;;4.07;;
72335;SDS011;65062;48.446;8.834;2022-12-07T04:51:32;9.02;;;4.60;;
72335;SDS011;65062;48.446;8.834;2022-12-07T04:54:32;8.35;;;4.75;;
72335;SDS011;65062;48.446;8.834;2022-12-07T04:57:33;8.98;;;4.38;;
72335;SDS011;65062;48.446;8.834;2022-12-07T05:00:33;10.45;;;4.78;;
72335;SDS011;65062;48.446;8.834;2022-12-07T05:03:33;10.63;;;5.20;;
72335;SDS011;65062;48.446;8.834;2022-12-07T05:06:34;7.68;;;4.50;;
72335;SDS011;65062;48.446;8.834;2022-12-07T05:09:34;7.38;;;4.38;;
72335;SDS011;65062;48.446;8.834;2022-12-07T05:12:34;9.50;;;4.72;;
72335;SDS011;65062;48.446;8.834;2022-12-07T05:15:35;10.38;;;5.63;;
72335;SDS011;65062;48.446;8.834;2022-12-07T05:18:35;8.98;;;4.90;;
72335;SDS011;65062;48.446;8.834;2022-12-07T05:21:36;10.50;;;4.63;;
72335;SDS011;65062;48.446;8.834;2022-12-07T05:24:36;6.65;;;3.88;;
72335;SDS011;65062;48.446;8.834;2022-12-07T05:27:37;9.25;;;3.88;;
72335;SDS011;65062;48.446;8.834;2022-12-07T05:30:37;7.38;;;3.85;;
72335;SDS011;65062;48.446;8.834;2022-12-07T05:33:37;7.22;;;3.88;;
72335;SDS011;65062;48.446;8.834;2022-12-07T05:36:38;6.43;;;3.65;;
72335;SDS011;65062;48.446;8.834;2022-12-07T05:39:38;5.90;;;3.30;;
72335;SDS011;65062;48.446;8.834;2022-12-07T05:42:40;6.05;;;3.67;;
72335;SDS011;65062;48.446;8.834;2022-12-07T05:45:42;7.32;;;3.88;;
72335;SDS011;65062;48.446;8.834;2022-12-07T05:48:42;9.35;;;4.55;;
72335;SDS011;65062;48.446;8.834;2022-12-07T05:51:42;7.18;;;3.80;;
72335;SDS011;65062;48.446;8.834;2022-12-07T05:54:43;6.57;;;3.42;;
72335;SDS011;65062;48.446;8.834;2022-12-07T05:57:43;9.70;;;4.10;;
72335;SDS011;65062;48.446;8.834;2022-12-07T06:01:04;6.60;;;3.55;;
72335;SDS011;65062;48.446;8.834;2022-12-07T06:04:04;9.85;;;4.70;;
72335;SDS011;65062;48.446;8.834;2022-12-07T06:07:05;8.27;;;4.35;;
72335;SDS011;65062;48.446;8.834;2022-12-07T06:10:05;10.57;;;4.45;;
72335;SDS011;65062;48.446;8.834;2022-12-07T06:13:06;11.35;;;5.13;;
72335;SDS011;65062;48.446;8.834;2022-12-07T06:16:07;17.77;;;6.18;;
72335;SDS011;65062;48.446;8.834;2022-12-07T06:19:07;73.40;;;6.20;;
72335;SDS011;65062;48.446;8.834;2022-12-07T06:22:08;23.65;;;5.40;;
72335;SDS011;65062;48.446;8.834;2022-12-07T06:25:10;17.05;;;6.03;;
72335;SDS011;65062;48.446;8.834;2022-12-07T06:28:10;15.15;;;8.13;;
72335;SDS011;65062;48.446;8.834;2022-12-07T06:31:11;13.30;;;5.20;;
72335;SDS011;65062;48.446;8.834;2022-12-07T06:34:13;10.23;;;5.22;;
72335;SDS011;65062;48.446;8.834;2022-12-07T06:37:16;13.77;;;7.07;;
72335;SDS011;65062;48.446;8.834;2022-12-07T06:40:16;16.73;;;7.50;;
72335;SDS011;65062;48.446;8.834;2022-12-07T06:43:16;11.27;;;6.65;;
72335;SDS011;65062;48.446;8.834;2022-12-07T06:46:17;15.15;;;5.60;;
72335;SDS011;65062;48.446;8.834;2022-12-07T06:49:18;13.43;;;4.70;;
72335;SDS011;65062;48.446;8.834;2022-12-07T06:52:18;18.35;;;5.00;;
72335;SDS011;65062;48.446;8.834;2022-12-07T06:55:18;10.10;;;4.65;;
72335;SDS011;65062;48.446;8.834;2022-12-07T06:58:19;9.90;;;4.88;;
72335;SDS011;65062;48.446;8.834;2022-12-07T07:01:19;10.35;;;5.07;;
72335;SDS011;65062;48.446;8.834;2022-12-07T07:04:20;15.68;;;5.40;;
72335;SDS011;65062;48.446;8.834;2022-12-07T07:07:20;17.58;;;5.10;;
72335;SDS011;65062;48.446;8.834;2022-12-07T07:10:20;8.77;;;4.47;;
72335;SDS011;65062;48.446;8.834;2022-12-07T07:13:21;13.27;;;4.68;;
72335;SDS011;65062;48.446;8.834;2022-12-07T07:16:21;13.77;;;4.18;;
72335;SDS011;65062;48.446;8.834;2022-12-07T07:19:21;12.27;;;4.50;;
72335;SDS011;65062;48.446;8.834;2022-12-07T07:22:22;9.88;;;4.93;;
72335;SDS011;65062;48.446;8.834;2022-12-07T07:25:22;8.63;;;4.20;;
72335;SDS011;65062;48.446;8.834;2022-12-07T07:28:22;10.38;;;5.35;;
72335;SDS011;65062;48.446;8.834;2022-12-07T07:31:23;72.40;;;25.13;;
72335;SDS011;65062;48.446;8.834;2022-12-07T07:34:23;40.15;;;15.48;;
72335;SDS011;65062;48.446;8.834;2022-12-07T07:37:23;14.75;;;5.55;;
72335;SDS011;65062;48.446;8.834;2022-12-07T07:40:24;10.60;;;4.93;;
72335;SDS011;65062;48.446;8.834;2022-12-07T07:43:25;9.38;;;4.72;;
72335;SDS011;65062;48.446;8.834;2022-12-07T07:46:25;12.23;;;7.38;;
72335;SDS011;65062;48.446;8.834;2022-12-07T07:49:25;12.75;;;6.32;;
72335;SDS011;65062;48.446;8.834;2022-12-07T07:52:26;10.15;;;5.32;;
72335;SDS011;65062;48.446;8.834;2022-12-07T07:55:27;12.15;;;5.68;;
72335;SDS011;65062;48.446;8.834;2022-12-07T07:58:27;10.57;;;6.20;;
72335;SDS011;65062;48.446;8.834;2022-12-07T08:01:27;10.10;;;5.05;;
72335;SDS011;65062;48.446;8.834;2022-12-07T08:04:28;11.80;;;5.22;;
72335;SDS011;65062;48.446;8.834;2022-12-07T08:07:28;9.25;;;5.15;;
72335;SDS011;65062;48.446;8.834;2022-12-07T08:10:28;9.60;;;4.72;;
72335;SDS011;65062;48.446;8.834;2022-12-07T08:13:29;7.45;;;4.45;;
72335;SDS011;65062;48.446;8.834;2022-12-07T08:16:29;7.38;;;4.63;;
72335;SDS011;65062;48.446;8.834;2022-12-07T08:19:30;8.27;;;4.93;;
72335;SDS011;65062;48.446;8.834;2022-12-07T08:22:30;9.63;;;5.07;;
72335;SDS011;65062;48.446;8.834;2022-12-07T08:25:32;7.95;;;4.93;;
72335;SDS011;65062;48.446;8.834;2022-12-07T08:28:33;9.00;;;5.20;;
72335;SDS011;65062;48.446;8.834;2022-12-07T08:31:33;7.55;;;4.95;;
72335;SDS011;65062;48.446;8.834;2022-12-07T08:34:34;7.57;;;4.47;;
72335;SDS011;65062;48.446;8.834;2022-12-07T08:37:35;7.75;;;4.80;;
72335;SDS011;65062;48.446;8.834;2022-12-07T08:40:36;6.70;;;4.55;;
72335;SDS011;65062;48.446;8.834;2022-12-07T08:43:37;8.52;;;5.20;;
72335;SDS011;65062;48.446;8.834;2022-12-07T08:46:42;7.85;;;4.97;;
72335;SDS011;65062;48.446;8.834;2022-12-07T08:49:47;9.15;;;5.50;;
72335;SDS011;65062;48.446;8.834;2022-12-07T08:52:51;7.90;;;4.80;;
72335;SDS011;65062;48.446;8.834;2022-12-07T08:55:55;8.45;;;5.07;;
72335;SDS011;65062;48.446;8.834;2022-12-07T08:58:56;8.40;;;4.40;;
72335;SDS011;65062;48.446;8.834;2022-12-07T09:01:57;7.20;;;4.57;;
72335;SDS011;65062;48.446;8.834;2022-12-07T09:04:58;8.88;;;4.40;;
72335;SDS011;65062;48.446;8.834;2022-12-07T09:07:59;7.95;;;4.43;;
72335;SDS011;65062;48.446;8.834;2022-12-07T09:11:01;8.55;;;4.35;;
72335;SDS011;65062;48.446;8.834;2022-12-07T09:14:02;9.35;;;6.53;;
72335;SDS011;65062;48.446;8.834;2022-12-07T09:17:08;13.43;;;10.40;;
72335;SDS011;65062;48.446;8.834;2022-12-07T09:20:10;9.48;;;4.60;;
72335;SDS011;65062;48.446;8.834;2022-12-07T09:23:12;6.80;;;4.45;;
72335;SDS011;65062;48.446;8.834;2022-12-07T09:26:12;7.97;;;4.07;;
72335;SDS011;65062;48.446;8.834;2022-12-07T09:29:12;7.93;;;4.63;;
72335;SDS011;65062;48.446;8.834;2022-12-07T09:32:13;8.35;;;4.43;;
72335;SDS011;65062;48.446;8.834;2022-12-07T09:35:13;8.38;;;5.00;;
72335;SDS011;65062;48.446;8.834;2022-12-07T09:38:14;7.97;;;4.40;;
72335;SDS011;65062;48.446;8.834;2022-12-07T09:41:15;7.47;;;4.28;;
72335;SDS011;65062;48.446;8.834;2022-12-07T09:44:23;7.88;;;4.47;;
72335;SDS011;65062;48.446;8.834;2022-12-07T09:47:26;8.23;;;4.97;;
72335;SDS011;65062;48.446;8.834;2022-12-07T09:50:28;10.02;;;5.15;;
72335;SDS011;65062;48.446;8.834;2022-12-07T09:53:30;7.50;;;5.10;;
72335;SDS011;65062;48.446;8.834;2022-12-07T09:56:35;7.97;;;4.45;;
72335;SDS011;65062;48.446;8.834;2022-12-07T09:59:36;8.02;;;5.05;;
72335;SDS011;65062;48.446;8.834;2022-12-07T10:02:37;8.98;;;5.53;;
72335;SDS011;65062;48.446;8.834;2022-12-07T10:05:46;7.60;;;4.65;;
72335;SDS011;65062;48.446;8.834;2022-12-07T10:08:49;8.07;;;4.55;;
72335;SDS011;65062;48.446;8.834;2022-12-07T10:12:07;8.02;;;4.78;;
72335;SDS011;65062;48.446;8.834;2022-12-07T10:15:09;7.97;;;4.40;;
72335;SDS011;65062;48.446;8.834;2022-12-07T10:21:25;6.57;;;3.35;;
72335;SDS011;65062;48.446;8.834;2022-12-07T10:24:26;7.65;;;4.15;;
72335;SDS011;65062;48.446;8.834;2022-12-07T10:27:29;7.30;;;4.40;;
72335;SDS011;65062;48.446;8.834;2022-12-07T10:30:31;9.35;;;5.07;;
72335;SDS011;65062;48.446;8.834;2022-12-07T10:33:36;7.25;;;4.50;;
72335;SDS011;65062;48.446;8.834;2022-12-07T10:36:38;8.43;;;5.00;;
72335;SDS011;65062;48.446;8.834;2022-12-07T10:42:49;7.80;;;4.55;;
72335;SDS011;65062;48.446;8.834;2022-12-07T10:53:13;6.47;;;4.38;;
72335;SDS011;65062;48.446;8.834;2022-12-07T10:56:31;8.73;;;4.40;;
72335;SDS011;65062;48.446;8.834;2022-12-07T11:32:41;6.30;;;4.00;;
72335;SDS011;65062;48.446;8.834;2022-12-07T11:38:57;5.75;;;3.45;;
72335;SDS011;65062;48.446;8.834;2022-12-07T11:42:14;6.35;;;3.63;;
72335;SDS011;65062;48.446;8.834;2022-12-07T11:45:20;8.80;;;3.90;;
72335;SDS011;65062;48.446;8.834;2022-12-07T11:51:38;6.53;;;4.00;;
72335;SDS011;65062;48.446;8.834;2022-12-07T11:54:40;6.10;;;3.42;;
72335;SDS011;65062;48.446;8.834;2022-12-07T11:57:44;6.10;;;3.38;;
72335;SDS011;65062;48.446;8.834;2022-12-07T12:00:49;6.53;;;3.08;;
72335;SDS011;65062;48.446;8.834;2022-12-07T12:04:01;5.75;;;3.05;;
72335;SDS011;65062;48.446;8.834;2022-12-07T12:07:06;4.82;;;2.70;;
72335;SDS011;65062;48.446;8.834;2022-12-07T12:10:15;4.50;;;2.83;;
72335;SDS011;65062;48.446;8.834;2022-12-07T12:13:45;5.55;;;3.08;;
72335;SDS011;65062;48.446;8.834;2022-12-07T12:20:16;4.35;;;2.83;;
72335;SDS011;65062;48.446;8.834;2022-12-07T12:23:50;4.07;;;2.65;;
72335;SDS011;65062;48.446;8.834;2022-12-07T12:26:57;4.28;;;2.70;;
72335;SDS011;65062;48.446;8.834;2022-12-07T12:30:23;5.57;;;2.83;;
72335;SDS011;65062;48.446;8.834;2022-12-07T12:33:32;4.13;;;2.42;;
72335;SDS011;65062;48.446;8.834;2022-12-07T12:36:43;5.63;;;2.83;;
72335;SDS011;65062;48.446;8.834;2022-12-07T12:40:12;4.35;;;2.47;;
72335;SDS011;65062;48.446;8.834;2022-12-07T12:53:23;3.88;;;2.38;;
72335;SDS011;65062;48.446;8.834;2022-12-07T13:02:53;3.45;;;1.83;;
72335;SDS011;65062;48.446;8.834;2022-12-07T13:09:28;3.92;;;2.00;;
72335;SDS011;65062;48.446;8.834;2022-12-07T13:12:31;4.22;;;2.55;;
72335;SDS011;65062;48.446;8.834;2022-12-07T13:15:32;3.45;;;1.95;;
72335;SDS011;65062;48.446;8.834;2022-12-07T13:18:37;3.00;;;1.50;;
72335;SDS011;65062;48.446;8.834;2022-12-07T13:21:41;2.17;;;1.52;;
72335;SDS011;65062;48.446;8.834;2022-12-07T13:24:43;2.55;;;1.27;;
72335;SDS011;65062;48.446;8.834;2022-12-07T13:27:43;2.40;;;1.58;;
72335;SDS011;65062;48.446;8.834;2022-12-07T13:34:01;3.60;;;1.90;;
72335;SDS011;65062;48.446;8.834;2022-12-07T13:37:08;3.70;;;2.03;;
72335;SDS011;65062;48.446;8.834;2022-12-07T13:40:19;3.00;;;1.80;;
72335;SDS011;65062;48.446;8.834;2022-12-07T13:43:21;3.63;;;2.05;;
72335;SDS011;65062;48.446;8.834;2022-12-07T13:46:26;3.05;;;1.90;;
72335;SDS011;65062;48.446;8.834;2022-12-07T13:49:47;2.53;;;1.80;;
72335;SDS011;65062;48.446;8.834;2022-12-07T13:52:49;3.20;;;1.70;;
72335;SDS011;65062;48.446;8.834;2022-12-07T13:55:50;2.55;;;1.88;;
72335;SDS011;65062;48.446;8.834;2022-12-07T13:58:51;3.63;;;2.25;;
72335;SDS011;65062;48.446;8.834;2022-12-07T14:01:52;5.18;;;2.67;;
72335;SDS011;65062;48.446;8.834;2022-12-07T14:08:21;3.35;;;2.50;;
72335;SDS011;65062;48.446;8.834;2022-12-07T14:11:22;5.03;;;2.50;;
72335;SDS011;65062;48.446;8.834;2022-12-07T14:14:25;3.30;;;2.33;;
72335;SDS011;65062;48.446;8.834;2022-12-07T14:17:27;4.15;;;2.13;;
72335;SDS011;65062;48.446;8.834;2022-12-07T14:20:38;3.38;;;2.00;;
72335;SDS011;65062;48.446;8.834;2022-12-07T14:23:40;3.75;;;2.20;;
72335;SDS011;65062;48.446;8.834;2022-12-07T14:26:42;3.30;;;2.20;;
72335;SDS011;65062;48.446;8.834;2022-12-07T14:29:43;3.42;;;1.95;;
72335;SDS011;65062;48.446;8.834;2022-12-07T14:32:44;3.53;;;1.98;;
72335;SDS011;65062;48.446;8.834;2022-12-07T14:35:48;2.90;;;2.00;;
72335;SDS011;65062;48.446;8.834;2022-12-07T14:38:49;4.00;;;1.88;;
72335;SDS011;65062;48.446;8.834;2022-12-07T14:41:49;2.63;;;1.85;;
72335;SDS011;65062;48.446;8.834;2022-12-07T14:44:52;1.73;;;1.00;;
72335;SDS011;65062;48.446;8.834;2022-12-07T14:47:53;2.05;;;1.30;;
72335;SDS011;65062;48.446;8.834;2022-12-07T14:50:53;1.63;;;1.00;;
72335;SDS011;65062;48.446;8.834;2022-12-07T14:53:54;2.58;;;1.20;;
72335;SDS011;65062;48.446;8.834;2022-12-07T14:56:55;2.40;;;1.40;;
72335;SDS011;65062;48.446;8.834;2022-12-07T14:59:55;5.72;;;2.60;;
72335;SDS011;65062;48.446;8.834;2022-12-07T15:02:55;3.10;;;1.25;;
72335;SDS011;65062;48.446;8.834;2022-12-07T15:05:56;4.15;;;1.73;;
72335;SDS011;65062;48.446;8.834;2022-12-07T15:08:57;1.00;;;0.77;;
72335;SDS011;65062;48.446;8.834;2022-12-07T15:11:57;1.80;;;0.70;;
72335;SDS011;65062;48.446;8.834;2022-12-07T15:14:58;1.85;;;1.17;;
72335;SDS011;65062;48.446;8.834;2022-12-07T15:17:58;2.75;;;1.65;;
72335;SDS011;65062;48.446;8.834;2022-12-07T15:20:58;2.08;;;1.30;;
72335;SDS011;65062;48.446;8.834;2022-12-07T15:23:59;3.38;;;1.42;;
72335;SDS011;65062;48.446;8.834;2022-12-07T15:26:59;1.40;;;0.90;;
72335;SDS011;65062;48.446;8.834;2022-12-07T15:29:59;1.92;;;1.20;;
72335;SDS011;65062;48.446;8.834;2022-12-07T15:33:00;2.20;;;1.00;;
72335;SDS011;65062;48.446;8.834;2022-12-07T15:36:00;3.13;;;1.42;;
72335;SDS011;65062;48.446;8.834;2022-12-07T15:39:01;2.15;;;1.10;;
72335;SDS011;65062;48.446;8.834;2022-12-07T15:42:03;1.45;;;1.20;;
72335;SDS011;65062;48.446;8.834;2022-12-07T15:45:04;1.88;;;1.17;;
72335;SDS011;65062;48.446;8.834;2022-12-07T15:48:06;1.83;;;1.10;;
72335;SDS011;65062;48.446;8.834;2022-12-07T15:51:07;2.50;;;1.13;;
72335;SDS011;65062;48.446;8.834;2022-12-07T15:54:13;1.35;;;1.02;;
72335;SDS011;65062;48.446;8.834;2022-12-07T15:57:17;1.55;;;1.10;;
72335;SDS011;65062;48.446;8.834;2022-12-07T16:00:18;1.77;;;1.02;;
72335;SDS011;65062;48.446;8.834;2022-12-07T16:03:19;6.63;;;0.98;;
72335;SDS011;65062;48.446;8.834;2022-12-07T16:06:19;1.35;;;0.95;;
72335;SDS011;65062;48.446;8.834;2022-12-07T16:09:20;2.65;;;1.17;;
72335;SDS011;65062;48.446;8.834;2022-12-07T16:12:20;2.10;;;1.63;;
72335;SDS011;65062;48.446;8.834;2022-12-07T16:15:21;6.18;;;3.75;;
72335;SDS011;65062;48.446;8.834;2022-12-07T16:18:21;2.08;;;1.60;;
72335;SDS011;65062;48.446;8.834;2022-12-07T16:21:21;2.10;;;1.48;;
72335;SDS011;65062;48.446;8.834;2022-12-07T16:24:22;1.95;;;1.30;;
72335;SDS011;65062;48.446;8.834;2022-12-07T16:27:23;3.17;;;1.85;;
72335;SDS011;65062;48.446;8.834;2022-12-07T16:30:23;2.42;;;1.90;;
72335;SDS011;65062;48.446;8.834;2022-12-07T16:33:23;2.05;;;1.45;;
72335;SDS011;65062;48.446;8.834;2022-12-07T16:36:24;2.80;;;1.75;;
72335;SDS011;65062;48.446;8.834;2022-12-07T16:39:25;4.60;;;2.15;;
72335;SDS011;65062;48.446;8.834;2022-12-07T16:42:26;2.92;;;2.20;;
72335;SDS011;65062;48.446;8.834;2022-12-07T16:45:26;2.47;;;1.77;;
72335;SDS011;65062;48.446;8.834;2022-12-07T16:48:27;2.63;;;1.63;;
72335;SDS011;65062;48.446;8.834;2022-12-07T16:51:27;3.30;;;2.00;;
72335;SDS011;65062;48.446;8.834;2022-12-07T16:54:28;3.25;;;1.90;;
72335;SDS011;65062;48.446;8.834;2022-12-07T16:57:32;2.78;;;1.88;;
72335;SDS011;65062;48.446;8.834;2022-12-07T17:00:32;3.55;;;2.38;;
72335;SDS011;65062;48.446;8.834;2022-12-07T17:03:33;2.80;;;1.95;;
72335;SDS011;65062;48.446;8.834;2022-12-07T17:06:34;2.42;;;1.65;;
72335;SDS011;65062;48.446;8.834;2022-12-07T17:09:34;2.75;;;1.80;;
72335;SDS011;65062;48.446;8.834;2022-12-07T17:12:35;3.05;;;1.85;;
72335;SDS011;65062;48.446;8.834;2022-12-07T17:15:35;4.05;;;2.08;;
72335;SDS011;65062;48.446;8.834;2022-12-07T17:18:35;3.10;;;1.83;;
72335;SDS011;65062;48.446;8.834;2022-12-07T17:21:36;2.83;;;2.00;;
72335;SDS011;65062;48.446;8.834;2022-12-07T17:24:37;3.75;;;2.70;;
72335;SDS011;65062;48.446;8.834;2022-12-07T17:27:37;3.65;;;2.60;;
72335;SDS011;65062;48.446;8.834;2022-12-07T17:30:38;3.20;;;2.13;;
72335;SDS011;65062;48.446;8.834;2022-12-07T17:33:39;3.22;;;1.65;;
72335;SDS011;65062;48.446;8.834;2022-12-07T17:36:39;2.33;;;1.63;;
72335;SDS011;65062;48.446;8.834;2022-12-07T17:39:41;3.70;;;1.65;;
72335;SDS011;65062;48.446;8.834;2022-12-07T17:42:41;2.97;;;1.60;;
72335;SDS011;65062;48.446;8.834;2022-12-07T17:45:47;4.53;;;1.70;;
72335;SDS011;65062;48.446;8.834;2022-12-07T17:48:47;2.50;;;1.73;;
72335;SDS011;65062;48.446;8.834;2022-12-07T17:51:47;2.95;;;1.80;;
72335;SDS011;65062;48.446;8.834;2022-12-07T17:55:06;3.40;;;2.03;;
72335;SDS011;65062;48.446;8.834;2022-12-07T17:58:07;2.90;;;2.05;;
72335;SDS011;65062;48.446;8.834;2022-12-07T18:01:08;3.13;;;2.00;;
72335;SDS011;65062;48.446;8.834;2022-12-07T18:04:09;3.75;;;1.92;;
72335;SDS011;65062;48.446;8.834;2022-12-07T18:07:10;4.28;;;1.98;;
72335;SDS011;65062;48.446;8.834;2022-12-07T18:10:10;4.38;;;2.35;;
72335;SDS011;65062;48.446;8.834;2022-12-07T18:13:11;5.18;;;2.28;;
72335;SDS011;65062;48.446;8.834;2022-12-07T18:16:30;5.65;;;3.30;;
72335;SDS011;65062;48.446;8.834;2022-12-07T18:19:33;7.22;;;3.10;;
72335;SDS011;65062;48.446;8.834;2022-12-07T18:22:36;6.88;;;3.58;;
72335;SDS011;65062;48.446;8.834;2022-12-07T18:25:38;4.90;;;3.25;;
72335;SDS011;65062;48.446;8.834;2022-12-07T18:28:39;5.90;;;3.50;;
72335;SDS011;65062;48.446;8.834;2022-12-07T18:31:40;6.00;;;3.30;;
72335;SDS011;65062;48.446;8.834;2022-12-07T18:34:41;4.13;;;2.58;;
72335;SDS011;65062;48.446;8.834;2022-12-07T18:37:42;4.78;;;2.60;;
72335;SDS011;65062;48.446;8.834;2022-12-07T18:40:42;3.97;;;2.33;;
72335;SDS011;65062;48.446;8.834;2022-12-07T18:43:43;5.10;;;2.65;;
72335;SDS011;65062;48.446;8.834;2022-12-07T18:46:44;9.35;;;4.88;;
72335;SDS011;65062;48.446;8.834;2022-12-07T18:49:44;12.23;;;4.65;;
72335;SDS011;65062;48.446;8.834;2022-12-07T18:52:44;8.93;;;3.58;;
72335;SDS011;65062;48.446;8.834;2022-12-07T18:55:45;6.03;;;3.45;;
72335;SDS011;65062;48.446;8.834;2022-12-07T18:58:55;11.57;;;5.78;;
72335;SDS011;65062;48.446;8.834;2022-12-07T19:02:16;6.25;;;3.28;;
72335;SDS011;65062;48.446;8.834;2022-12-07T19:05:18;4.05;;;2.75;;
72335;SDS011;65062;48.446;8.834;2022-12-07T19:08:18;5.30;;;3.17;;
72335;SDS011;65062;48.446;8.834;2022-12-07T19:11:19;7.45;;;4.97;;
72335;SDS011;65062;48.446;8.834;2022-12-07T19:14:40;15.63;;;7.28;;
72335;SDS011;65062;48.446;8.834;2022-12-07T19:17:40;7.85;;;4.60;;
72335;SDS011;65062;48.446;8.834;2022-12-07T19:20:41;7.70;;;4.03;;
72335;SDS011;65062;48.446;8.834;2022-12-07T19:23:42;8.10;;;3.42;;
72335;SDS011;65062;48.446;8.834;2022-12-07T19:26:42;5.50;;;3.28;;
72335;SDS011;65062;48.446;8.834;2022-12-07T19:29:42;5.55;;;2.70;;
72335;SDS011;65062;48.446;8.834;2022-12-07T19:32:43;5.07;;;2.40;;
72335;SDS011;65062;48.446;8.834;2022-12-07T19:35:43;6.57;;;3.15;;
72335;SDS011;65062;48.446;8.834;2022-12-07T19:38:44;3.92;;;2.53;;
72335;SDS011;65062;48.446;8.834;2022-12-07T19:41:44;5.55;;;3.25;;
72335;SDS011;65062;48.446;8.834;2022-12-07T19:44:45;5.53;;;3.28;;
72335;SDS011;65062;48.446;8.834;2022-12-07T19:47:45;7.43;;;3.50;;
72335;SDS011;65062;48.446;8.834;2022-12-07T19:50:46;6.20;;;3.17;;
72335;SDS011;65062;48.446;8.834;2022-12-07T19:53:46;5.25;;;3.08;;
72335;SDS011;65062;48.446;8.834;2022-12-07T19:56:47;4.18;;;2.72;;
72335;SDS011;65062;48.446;8.834;2022-12-07T19:59:49;6.13;;;3.00;;
72335;SDS011;65062;48.446;8.834;2022-12-07T20:02:52;3.95;;;2.50;;
72335;SDS011;65062;48.446;8.834;2022-12-07T20:05:52;4.28;;;2.33;;
72335;SDS011;65062;48.446;8.834;2022-12-07T20:08:53;4.05;;;2.28;;
72335;SDS011;65062;48.446;8.834;2022-12-07T20:11:53;7.38;;;4.85;;
72335;SDS011;65062;48.446;8.834;2022-12-07T20:15:12;5.90;;;3.30;;
72335;SDS011;65062;48.446;8.834;2022-12-07T20:18:12;6.25;;;3.50;;
72335;SDS011;65062;48.446;8.834;2022-12-07T20:21:12;4.38;;;2.55;;
72335;SDS011;65062;48.446;8.834;2022-12-07T20:24:14;6.32;;;2.67;;
72335;SDS011;65062;48.446;8.834;2022-12-07T20:27:22;5.18;;;3.17;;
72335;SDS011;65062;48.446;8.834;2022-12-07T20:30:22;5.63;;;3.47;;